Trine Charlotte — LMRY — position and weather

sailwx.info

Track history (hours):
 
Tides and Currents Weather Stations Pressure Air Temp Water Temp Dewpoint Dewpoint Depression Visibility Wind Speed Wind Dir Waves Ship Positions

Trine Charlotte

Last reported at 2018-Apr-27 05:00 UTC. Time now 2018-Apr-27 05:05 UTC.
Position N 69°39' E 018°58'.

Length 66 m; draft 4.6 m.

Type: Cargo ship. MMSI: 257233000.

Date/timePositionNaut miles runAvg speedWind from/ knotsBaromVisibWave heightAir tempDewpointWater temp
2018-Apr-27 05:00N 69°39' E 018°58'0 0.0
2018-Apr-27 04:30N 69°39' E 018°58'0 0.0
2018-Apr-27 04:00N 69°39' E 018°58'0 0.0
2018-Apr-27 03:30N 69°39' E 018°58'0 0.0
2018-Apr-27 03:00N 69°39' E 018°58'0 0.0
2018-Apr-27 02:30N 69°39' E 018°58'0 0.0
2018-Apr-27 02:00N 69°39' E 018°58'0 0.0
2018-Apr-27 01:30N 69°39' E 018°58'0 0.0
2018-Apr-27 01:00N 69°39' E 018°58'0 0.0
2018-Apr-27 00:30N 69°39' E 018°58'0 0.0
2018-Apr-26 23:59N 69°39' E 018°58'0 0.0
2018-Apr-26 23:30N 69°39' E 018°58'0 0.1
2018-Apr-26 23:00N 69°39' E 018°58'0 0.0
2018-Apr-26 22:30N 69°39' E 018°58'0 0.0
2018-Apr-26 22:00N 69°39' E 018°58'0 0.0
2018-Apr-26 21:30N 69°39' E 018°58'0 0.0
2018-Apr-26 21:00N 69°39' E 018°58'0 0.0
2018-Apr-26 20:30N 69°39' E 018°58'0 0.0
2018-Apr-26 20:00N 69°39' E 018°58'0 0.0
2018-Apr-26 19:30N 69°39' E 018°58'0 0.0
2018-Apr-26 19:00N 69°39' E 018°58'0 0.0
2018-Apr-26 18:30N 69°39' E 018°58'1 1.9
2018-Apr-26 17:59N 69°38' E 018°57'4 8.8
2018-Apr-26 17:30N 69°34' E 018°55'4 8.7
2018-Apr-26 17:00N 69°30' E 018°57'4 8.4
2018-Apr-26 16:30N 69°26' E 019°00'4 8.4
2018-Apr-26 16:00N 69°22' E 019°06'4 8.7
2018-Apr-26 15:30N 69°21' E 019°18'4 8.4
2018-Apr-26 14:59N 69°17' E 019°22'3 5.4
2018-Apr-26 14:30N 69°14' E 019°22'0 0.0
2018-Apr-26 14:00N 69°14' E 019°22'0 0.0
2018-Apr-26 13:30N 69°14' E 019°22'0 0.0
2018-Apr-26 13:00N 69°14' E 019°22'0 0.0
2018-Apr-26 12:29N 69°14' E 019°22'0 0.0
2018-Apr-26 12:01N 69°14' E 019°22'1 2.5
2018-Apr-26 11:30N 69°16' E 019°22'5 9.2
2018-Apr-26 11:00N 69°20' E 019°20'5 9.1
2018-Apr-26 10:30N 69°22' E 019°09'4 8.9
2018-Apr-26 10:00N 69°25' E 019°00'4 9.1
2018-Apr-26 09:31N 69°30' E 018°56'5 9.4
2018-Apr-26 08:58N 69°35' E 018°55'4 8.7
2018-Apr-26 08:30N 69°39' E 018°58'1 1.1
2018-Apr-26 08:00N 69°39' E 018°58'0 0.0
2018-Apr-26 07:30N 69°39' E 018°58'0 0.0
2018-Apr-26 06:59N 69°39' E 018°58'0 0.0
2018-Apr-26 06:30N 69°39' E 018°58'0 0.0
2018-Apr-26 06:00N 69°39' E 018°58'0 0.0
2018-Apr-26 05:30N 69°39' E 018°58'0 0.0
2018-Apr-26 05:00N 69°39' E 018°58'0 0.0
2018-Apr-26 04:30N 69°39' E 018°58'0 0.0
2018-Apr-26 04:00N 69°39' E 018°58'0 0.0
2018-Apr-26 03:30N 69°39' E 018°58'0 0.0
2018-Apr-26 02:59N 69°39' E 018°58'0 0.0
2018-Apr-26 02:29N 69°39' E 018°58'0 0.0
2018-Apr-26 02:01N 69°39' E 018°58'0 0.0
2018-Apr-26 01:30N 69°39' E 018°58'0 0.0
2018-Apr-26 01:00N 69°39' E 018°58'0 0.0
2018-Apr-26 00:30N 69°39' E 018°58'0 0.0
2018-Apr-26 00:00N 69°39' E 018°58'0 0.0
2018-Apr-25 23:30N 69°39' E 018°58'0 0.4
2018-Apr-25 23:00N 69°39' E 018°59'4 8.0
2018-Apr-25 22:31N 69°35' E 018°55'5 9.1
2018-Apr-25 22:00N 69°31' E 018°56'5 9.1
2018-Apr-25 21:30N 69°26' E 018°59'5 9.0
2018-Apr-25 21:00N 69°23' E 019°06'5 9.0
2018-Apr-25 20:30N 69°21' E 019°18'4 8.4
2018-Apr-25 20:00N 69°17' E 019°22'3 5.7
2018-Apr-25 19:30N 69°14' E 019°22'0 0.0
2018-Apr-25 19:00N 69°14' E 019°22'0 0.0
2018-Apr-25 18:30N 69°14' E 019°22'0 0.0
2018-Apr-25 18:00N 69°14' E 019°22'0 0.0
2018-Apr-25 17:30N 69°14' E 019°22'0 0.0
2018-Apr-25 17:00N 69°14' E 019°22'0 0.0
2018-Apr-25 16:29N 69°14' E 019°22'0 0.0
2018-Apr-25 16:00N 69°14' E 019°22'0 0.0
2018-Apr-25 15:30N 69°14' E 019°22'0 0.0
2018-Apr-25 15:01N 69°14' E 019°22'0 0.0
2018-Apr-25 14:30N 69°14' E 019°22'3 6.5
2018-Apr-25 14:00N 69°18' E 019°22'4 8.3
2018-Apr-25 13:30N 69°21' E 019°16'4 8.8
2018-Apr-25 13:00N 69°23' E 019°05'4 8.9
2018-Apr-25 12:30N 69°27' E 018°59'4 8.7
2018-Apr-25 12:00N 69°31' E 018°56'4 9.0
2018-Apr-25 11:30N 69°35' E 018°55'4 7.9
2018-Apr-25 11:00N 69°39' E 018°59'0 0.3
2018-Apr-25 10:30N 69°39' E 018°58'0 0.0
2018-Apr-25 10:00N 69°39' E 018°58'0 0.0
2018-Apr-25 09:30N 69°39' E 018°58'0 0.0
2018-Apr-25 09:00N 69°39' E 018°58'0 0.0
2018-Apr-25 08:30N 69°39' E 018°58'0 0.0
2018-Apr-25 08:00N 69°39' E 018°58'0 0.0
2018-Apr-25 07:30N 69°39' E 018°58'0 0.0
2018-Apr-25 07:00N 69°39' E 018°58'0 0.0
2018-Apr-25 06:30N 69°39' E 018°58'0 0.0
2018-Apr-25 06:00N 69°39' E 018°58'0 0.0
2018-Apr-25 05:30N 69°39' E 018°58'0 0.0
2018-Apr-25 05:00N 69°39' E 018°58'0 0.0
2018-Apr-25 04:30N 69°39' E 018°58'0 0.0
2018-Apr-25 04:00N 69°39' E 018°58'0 0.0
2018-Apr-25 03:30N 69°39' E 018°58'0 0.0
2018-Apr-25 03:00N 69°39' E 018°58'0 0.0
2018-Apr-25 02:30N 69°39' E 018°58'0 0.0
2018-Apr-25 02:00N 69°39' E 018°58'0 0.0
2018-Apr-25 01:30N 69°39' E 018°58'0 0.0
2018-Apr-25 01:00N 69°39' E 018°58'0 0.0
2018-Apr-25 00:30N 69°39' E 018°58'0 0.0
2018-Apr-25 00:00N 69°39' E 018°58'0 0.0
2018-Apr-24 23:30N 69°39' E 018°58'0 0.0
2018-Apr-24 23:00N 69°39' E 018°58'0 0.0
2018-Apr-24 22:30N 69°39' E 018°58'0 0.0
2018-Apr-24 22:00N 69°39' E 018°58'0 0.0
2018-Apr-24 21:30N 69°39' E 018°58'0 0.0
2018-Apr-24 21:00N 69°39' E 018°58'0 0.0
2018-Apr-24 20:30N 69°39' E 018°58'0 0.2
2018-Apr-24 20:00N 69°39' E 018°58'4 7.1
2018-Apr-24 19:30N 69°36' E 018°55'4 8.6
2018-Apr-24 19:00N 69°32' E 018°56'4 8.8
2018-Apr-24 18:30N 69°27' E 018°58'4 9.0
2018-Apr-24 18:00N 69°23' E 019°04'4 8.7
2018-Apr-24 17:30N 69°21' E 019°15'4 8.0
2018-Apr-24 17:00N 69°18' E 019°22'4 7.6
2018-Apr-24 16:30N 69°14' E 019°22'0 0.2
2018-Apr-24 16:00N 69°14' E 019°22'0 0.0
2018-Apr-24 15:28N 69°14' E 019°22'0 0.0
2018-Apr-24 15:00N 69°14' E 019°22'0 0.0
2018-Apr-24 14:29N 69°14' E 019°22'0 0.0
2018-Apr-24 14:00N 69°14' E 019°22'0 0.2
2018-Apr-24 13:30N 69°14' E 019°22'4 8.1
2018-Apr-24 13:00N 69°18' E 019°22'4 7.9
2018-Apr-24 12:30N 69°21' E 019°15'4 8.3
2018-Apr-24 12:00N 69°23' E 019°04'4 8.6
2018-Apr-24 11:29N 69°27' E 018°58'4 8.5
2018-Apr-24 11:00N 69°31' E 018°56'5 9.0
2018-Apr-24 10:30N 69°35' E 018°55'4 8.6
2018-Apr-24 10:00N 69°40' E 018°59'0 0.2
2018-Apr-24 09:30N 69°40' E 018°58'0 0.0
2018-Apr-24 09:00N 69°40' E 018°58'0 0.0
2018-Apr-24 08:30N 69°40' E 018°58'0 0.0
2018-Apr-24 08:00N 69°40' E 018°58'0 0.0
2018-Apr-24 07:30N 69°40' E 018°58'0 0.0
2018-Apr-24 07:00N 69°40' E 018°58'0 0.0
2018-Apr-24 06:30N 69°40' E 018°58'0 0.0
2018-Apr-24 06:00N 69°40' E 018°58'0 0.0
2018-Apr-24 05:30N 69°40' E 018°58'0 0.0
2018-Apr-24 05:00N 69°40' E 018°58'0 0.0
2018-Apr-24 04:30N 69°40' E 018°58'0 0.0
2018-Apr-24 04:00N 69°40' E 018°58'0 0.1
2018-Apr-24 03:30N 69°40' E 018°58'0 0.0
2018-Apr-24 03:00N 69°40' E 018°58'0 0.0
2018-Apr-24 02:30N 69°40' E 018°58'0 0.0
2018-Apr-24 02:00N 69°40' E 018°58'0 0.0
2018-Apr-24 01:30N 69°40' E 018°58'0 0.0
2018-Apr-24 01:00N 69°40' E 018°58'0 0.0
2018-Apr-24 00:30N 69°40' E 018°58'0 0.0
2018-Apr-24 00:00N 69°40' E 018°58'0 0.0
2018-Apr-23 23:30N 69°40' E 018°58'0 0.0
2018-Apr-23 23:00N 69°40' E 018°58'0 0.0
2018-Apr-23 22:30N 69°40' E 018°58'0 0.0
2018-Apr-23 22:00N 69°40' E 018°58'0 0.1
2018-Apr-23 21:30N 69°40' E 018°58'3 6.0
2018-Apr-23 20:59N 69°42' E 019°03'4 8.5
2018-Apr-23 20:30N 69°46' E 019°10'4 8.9
2018-Apr-23 20:00N 69°47' E 019°21'4 8.8
2018-Apr-23 19:30N 69°49' E 019°34'4 7.7
2018-Apr-23 19:00N 69°48' E 019°45'5 9.1
2018-Apr-23 18:30N 69°44' E 019°45'4 9.1
2018-Apr-23 18:00N 69°39' E 019°45'3 5.6
2018-Apr-23 17:30N 69°37' E 019°44'0 0.0
2018-Apr-23 17:00N 69°37' E 019°44'0 0.0
2018-Apr-23 16:30N 69°37' E 019°44'0 0.0
2018-Apr-23 16:00N 69°37' E 019°44'0 0.0
2018-Apr-23 15:30N 69°37' E 019°44'0 0.0
2018-Apr-23 15:00N 69°37' E 019°44'1 2.2
2018-Apr-23 14:30N 69°38' E 019°45'2 3.8
2018-Apr-23 13:59N 69°40' E 019°45'3 6.9
2018-Apr-23 13:29N 69°43' E 019°45'3 6.6
2018-Apr-23 13:00N 69°46' E 019°45'3 6.1
2018-Apr-23 12:30N 69°49' E 019°43'3 6.0
2018-Apr-23 12:00N 69°49' E 019°34'4 8.2
2018-Apr-23 11:30N 69°48' E 019°23'4 8.5
2018-Apr-23 10:59N 69°46' E 019°12'4 8.6
2018-Apr-23 10:30N 69°43' E 019°04'4 7.9
2018-Apr-23 09:59N 69°39' E 018°58'0 0.2
2018-Apr-23 09:30N 69°39' E 018°58'0 0.0
2018-Apr-23 09:00N 69°39' E 018°58'0 0.0
2018-Apr-23 08:30N 69°39' E 018°58'0 0.0
2018-Apr-23 08:00N 69°39' E 018°58'0 0.0
2018-Apr-23 07:30N 69°39' E 018°58'0 0.0
2018-Apr-23 07:00N 69°39' E 018°58'0 0.0
2018-Apr-23 06:30N 69°39' E 018°58'0 0.0
2018-Apr-23 06:00N 69°39' E 018°58'0 0.0
2018-Apr-23 05:30N 69°39' E 018°58'0 0.0
2018-Apr-23 05:00N 69°39' E 018°58'0 0.0
2018-Apr-23 04:30N 69°39' E 018°58'0 0.0
2018-Apr-23 04:00N 69°39' E 018°58'0 0.0
2018-Apr-23 03:30N 69°39' E 018°58'0 0.0
2018-Apr-23 03:00N 69°39' E 018°58'0 0.0
2018-Apr-23 02:30N 69°39' E 018°58'0 0.0
2018-Apr-23 02:00N 69°39' E 018°58'0 0.0
2018-Apr-23 01:30N 69°39' E 018°58'0 0.0
2018-Apr-23 01:00N 69°39' E 018°58'0 0.0
2018-Apr-23 00:30N 69°39' E 018°58'0 0.0
2018-Apr-23 00:00N 69°39' E 018°58'0 0.0
2018-Apr-22 23:30N 69°39' E 018°58'0 0.0
2018-Apr-22 23:00N 69°39' E 018°58'0 0.0
2018-Apr-22 22:30N 69°39' E 018°58'0 0.0
2018-Apr-22 22:00N 69°39' E 018°58'0 0.0
2018-Apr-22 21:30N 69°39' E 018°58'0 0.0
2018-Apr-22 21:00N 69°39' E 018°58'0 0.0
2018-Apr-22 20:30N 69°39' E 018°58'0 0.0
2018-Apr-22 20:00N 69°39' E 018°58'3 5.9
2018-Apr-22 19:30N 69°36' E 018°55'4 8.9
2018-Apr-22 19:00N 69°32' E 018°56'4 8.7
2018-Apr-22 18:30N 69°28' E 018°57'4 8.7
2018-Apr-22 18:00N 69°24' E 019°03'4 8.3
2018-Apr-22 17:29N 69°21' E 019°13'4 8.0
2018-Apr-22 17:00N 69°19' E 019°22'4 8.6
2018-Apr-22 16:30N 69°15' E 019°22'0 0.9
2018-Apr-22 16:00N 69°14' E 019°22'0 0.0
2018-Apr-22 15:29N 69°14' E 019°22'0 0.0
2018-Apr-22 14:59N 69°14' E 019°22'0 0.0
2018-Apr-22 14:30N 69°14' E 019°22'0 0.0
2018-Apr-22 14:00N 69°14' E 019°22'0 0.0
2018-Apr-22 13:30N 69°14' E 019°22'0 0.0
2018-Apr-22 12:58N 69°14' E 019°22'3 5.6
2018-Apr-22 12:30N 69°17' E 019°22'4 7.5
2018-Apr-22 12:00N 69°21' E 019°19'4 7.9
2018-Apr-22 11:30N 69°22' E 019°09'4 8.0
2018-Apr-22 11:00N 69°25' E 019°01'4 8.2
2018-Apr-22 10:30N 69°29' E 018°57'4 8.4
2018-Apr-22 09:59N 69°33' E 018°55'4 8.9
2018-Apr-22 09:30N 69°37' E 018°56'2 3.8
2018-Apr-22 08:59N 69°39' E 018°58'0 0.0
2018-Apr-22 08:29N 69°39' E 018°58'0 0.0
2018-Apr-22 07:59N 69°39' E 018°58'0 0.0
2018-Apr-22 07:29N 69°39' E 018°58'0 0.0
2018-Apr-22 06:59N 69°39' E 018°58'0 0.0
2018-Apr-22 06:29N 69°39' E 018°58'0 0.0
2018-Apr-22 05:59N 69°39' E 018°58'0 0.0
2018-Apr-22 05:29N 69°39' E 018°58'0 0.0
2018-Apr-22 04:59N 69°39' E 018°58'0 0.0
2018-Apr-22 04:29N 69°39' E 018°58'0 0.0
2018-Apr-22 03:59N 69°39' E 018°58'0 0.0
2018-Apr-22 03:29N 69°39' E 018°58'0 0.0
2018-Apr-22 02:59N 69°39' E 018°58'0 0.0
2018-Apr-22 02:29N 69°39' E 018°58'0 0.0
2018-Apr-22 01:59N 69°39' E 018°58'0 0.0
2018-Apr-22 01:29N 69°39' E 018°58'0 0.0
2018-Apr-22 00:59N 69°39' E 018°58'0 0.0
2018-Apr-22 00:29N 69°39' E 018°58'0 0.0
2018-Apr-21 23:59N 69°39' E 018°58'0 0.0
2018-Apr-21 23:29N 69°39' E 018°58'0 0.0
2018-Apr-21 22:59N 69°39' E 018°58'0 0.0
2018-Apr-21 22:29N 69°39' E 018°58'0 0.0
2018-Apr-21 21:59N 69°39' E 018°58'0 0.0
2018-Apr-21 21:29N 69°39' E 018°58'0 0.0
2018-Apr-21 20:59N 69°39' E 018°58'0 0.0
2018-Apr-21 20:29N 69°39' E 018°58'0 0.0
2018-Apr-21 19:59N 69°39' E 018°58'0 0.0
2018-Apr-21 19:29N 69°39' E 018°58'0 0.0
2018-Apr-21 18:59N 69°39' E 018°58'0 0.0
2018-Apr-21 18:29N 69°39' E 018°58'0 0.0
2018-Apr-21 17:59N 69°39' E 018°58'0 0.0
2018-Apr-21 17:29N 69°39' E 018°58'0 0.0
2018-Apr-21 16:59N 69°39' E 018°58'0 0.0
2018-Apr-21 16:29N 69°39' E 018°58'0 0.0
2018-Apr-21 15:59N 69°39' E 018°58'0 0.0
2018-Apr-21 15:29N 69°39' E 018°58'0 0.0
2018-Apr-21 14:59N 69°39' E 018°58'0 0.0
2018-Apr-21 14:29N 69°39' E 018°58'0 0.0
2018-Apr-21 13:59N 69°39' E 018°58'0 0.0
2018-Apr-21 13:29N 69°39' E 018°58'0 0.0
2018-Apr-21 12:59N 69°39' E 018°58'0 0.0
2018-Apr-21 12:29N 69°39' E 018°58'0 0.0
2018-Apr-21 11:59N 69°39' E 018°58'0 0.0
2018-Apr-21 11:29N 69°39' E 018°58'0 0.0
2018-Apr-21 11:00N 69°39' E 018°58'3 5.4
2018-Apr-21 10:30N 69°37' E 018°55'5 9.1
2018-Apr-21 10:00N 69°32' E 018°56'4 9.1
2018-Apr-21 09:30N 69°28' E 018°57'5 9.2
2018-Apr-21 09:00N 69°24' E 019°03'4 8.7
2018-Apr-21 08:30N 69°21' E 019°14'4 8.2
2018-Apr-21 08:00N 69°18' E 019°22'4 7.6
2018-Apr-21 07:28N 69°14' E 019°22'0 0.0
2018-Apr-21 06:49N 69°14' E 019°22'0 0.0
2018-Apr-21 06:22N 69°14' E 019°22'0 0.0
2018-Apr-21 05:55N 69°14' E 019°22'0 0.0
2018-Apr-21 05:28N 69°14' E 019°22'0 0.0
2018-Apr-21 04:58N 69°14' E 019°22'0 0.0
2018-Apr-21 04:28N 69°14' E 019°22'0 0.0
2018-Apr-21 03:58N 69°14' E 019°22'0 0.0
2018-Apr-21 03:28N 69°14' E 019°22'0 0.0
2018-Apr-21 02:58N 69°14' E 019°22'0 0.0
2018-Apr-21 02:28N 69°14' E 019°22'0 0.0
2018-Apr-21 01:55N 69°14' E 019°22'0 0.0
2018-Apr-21 01:25N 69°14' E 019°22'0 0.0
2018-Apr-21 00:58N 69°14' E 019°22'0 0.0
2018-Apr-21 00:25N 69°14' E 019°22'0 0.0
2018-Apr-20 23:43N 69°14' E 019°22'0 0.0
2018-Apr-20 23:25N 69°14' E 019°22'0 0.0
2018-Apr-20 21:31N 69°14' E 019°22'0 0.0
2018-Apr-20 20:25N 69°14' E 019°22'0 0.0
2018-Apr-20 20:00N 69°14' E 019°22'0 0.0
2018-Apr-20 19:30N 69°14' E 019°22'0 0.0
2018-Apr-20 18:59N 69°14' E 019°22'0 0.0
2018-Apr-20 18:30N 69°14' E 019°22'3 5.9
2018-Apr-20 18:00N 69°17' E 019°22'4 8.1
2018-Apr-20 17:30N 69°21' E 019°17'4 9.0
2018-Apr-20 17:00N 69°23' E 019°05'5 8.7
2018-Apr-20 16:29N 69°26' E 018°59'4 8.5
2018-Apr-20 16:00N 69°30' E 018°56'4 9.0
2018-Apr-20 15:30N 69°35' E 018°55'4 9.0
2018-Apr-20 15:00N 69°39' E 018°59'0 0.6
2018-Apr-20 14:30N 69°39' E 018°58'0 0.0
2018-Apr-20 14:01N 69°39' E 018°58'0 0.0
2018-Apr-20 13:30N 69°39' E 018°58'0 0.0
2018-Apr-20 13:00N 69°39' E 018°58'0 0.0
2018-Apr-20 12:30N 69°39' E 018°58'0 0.0
2018-Apr-20 12:00N 69°39' E 018°58'0 0.0
2018-Apr-20 11:30N 69°39' E 018°58'0 0.0
2018-Apr-20 10:59N 69°39' E 018°58'3 6.1
2018-Apr-20 10:30N 69°37' E 018°55'5 9.0
2018-Apr-20 09:59N 69°32' E 018°55'4 8.9
2018-Apr-20 09:30N 69°28' E 018°57'4 9.0
2018-Apr-20 09:00N 69°24' E 019°03'4 8.5
2018-Apr-20 08:30N 69°21' E 019°13'4 8.1
2018-Apr-20 08:00N 69°19' E 019°22'4 8.5
2018-Apr-20 07:30N 69°14' E 019°22'0 0.3
2018-Apr-20 06:59N 69°14' E 019°22'0 0.0
2018-Apr-20 06:30N 69°14' E 019°22'0 0.0
2018-Apr-20 06:00N 69°14' E 019°22'0 0.0
2018-Apr-20 05:30N 69°14' E 019°22'0 0.0
2018-Apr-20 04:59N 69°14' E 019°22'0 0.0
2018-Apr-20 04:30N 69°14' E 019°22'0 0.0
2018-Apr-20 04:00N 69°14' E 019°22'3 6.4
2018-Apr-20 03:30N 69°17' E 019°22'4 8.4
2018-Apr-20 03:00N 69°21' E 019°16'4 8.9
2018-Apr-20 02:30N 69°23' E 019°05'5 9.2
2018-Apr-20 02:00N 69°27' E 018°58'5 9.4
2018-Apr-20 01:30N 69°31' E 018°56'5 9.6
2018-Apr-20 00:59N 69°36' E 018°55'3 6.6
2018-Apr-20 00:29N 69°40' E 018°58'0 0.0
2018-Apr-20 00:00N 69°40' E 018°58'0 0.0
2018-Apr-19 23:30N 69°40' E 018°58'0 0.0
2018-Apr-19 23:00N 69°40' E 018°58'0 0.0
2018-Apr-19 22:30N 69°40' E 018°58'0 0.0
2018-Apr-19 22:00N 69°40' E 018°58'0 0.0
2018-Apr-19 21:29N 69°40' E 018°58'0 0.0
2018-Apr-19 21:00N 69°40' E 018°58'0 0.0
2018-Apr-19 20:30N 69°40' E 018°58'0 0.0
2018-Apr-19 20:00N 69°40' E 018°58'0 0.0
2018-Apr-19 19:29N 69°40' E 018°58'0 0.0
2018-Apr-19 19:00N 69°40' E 018°58'3 5.3
2018-Apr-19 18:28N 69°42' E 019°03'4 8.4
2018-Apr-19 18:00N 69°45' E 019°08'5 8.8
2018-Apr-19 17:29N 69°47' E 019°20'4 9.1
2018-Apr-19 17:00N 69°49' E 019°32'4 8.4
2018-Apr-19 16:30N 69°49' E 019°45'4 8.8
2018-Apr-19 16:00N 69°44' E 019°45'4 8.9
2018-Apr-19 15:30N 69°40' E 019°45'3 6.5
2018-Apr-19 15:00N 69°37' E 019°44'0 0.0
2018-Apr-19 14:30N 69°37' E 019°44'0 0.0
2018-Apr-19 14:00N 69°37' E 019°44'0 0.0
2018-Apr-19 13:30N 69°37' E 019°44'0 0.0
2018-Apr-19 13:00N 69°37' E 019°44'0 0.0
2018-Apr-19 12:30N 69°37' E 019°44'2 4.5
2018-Apr-19 12:00N 69°39' E 019°45'5 9.6
2018-Apr-19 11:30N 69°44' E 019°45'5 9.5
2018-Apr-19 10:59N 69°48' E 019°44'4 7.8
2018-Apr-19 10:30N 69°49' E 019°34'4 8.5
2018-Apr-19 10:00N 69°48' E 019°22'4 8.6
2018-Apr-19 09:31N 69°46' E 019°11'5 8.7
2018-Apr-19 09:00N 69°42' E 019°03'3 6.9
2018-Apr-19 08:30N 69°39' E 018°58'0 0.0
2018-Apr-19 08:00N 69°39' E 018°58'0 0.0
2018-Apr-19 07:30N 69°39' E 018°58'0 0.0
2018-Apr-19 07:00N 69°39' E 018°58'0 0.0
2018-Apr-19 06:30N 69°39' E 018°58'0 0.0
2018-Apr-19 06:00N 69°39' E 018°58'0 0.0
2018-Apr-19 05:30N 69°39' E 018°58'0 0.0
2018-Apr-19 05:00N 69°39' E 018°58'0 0.0
2018-Apr-19 04:30N 69°39' E 018°58'0 0.0
2018-Apr-19 03:59N 69°39' E 018°58'0 0.0
2018-Apr-19 03:30N 69°39' E 018°58'0 0.0
2018-Apr-19 03:00N 69°39' E 018°58'0 0.0
2018-Apr-19 02:29N 69°39' E 018°58'0 0.0
2018-Apr-19 02:00N 69°39' E 018°58'0 0.0
2018-Apr-19 01:30N 69°39' E 018°58'0 0.0
2018-Apr-19 01:00N 69°39' E 018°58'0 0.0
2018-Apr-19 00:30N 69°39' E 018°58'1 2.0
2018-Apr-18 23:59N 69°38' E 018°57'4 8.4
2018-Apr-18 23:30N 69°34' E 018°55'4 8.5
2018-Apr-18 23:00N 69°30' E 018°56'4 8.1
2018-Apr-18 22:30N 69°26' E 018°59'4 8.3
2018-Apr-18 22:00N 69°23' E 019°06'4 8.4
2018-Apr-18 21:29N 69°21' E 019°17'4 7.4
2018-Apr-18 21:00N 69°18' E 019°22'4 6.3
2018-Apr-18 20:26N 69°14' E 019°22'0 0.0
2018-Apr-18 19:47N 69°14' E 019°22'0 0.0
2018-Apr-18 19:26N 69°14' E 019°22'0 0.0
2018-Apr-18 18:56N 69°14' E 019°22'0 0.0
2018-Apr-18 18:26N 69°14' E 019°22'0 0.0
2018-Apr-18 17:28N 69°14' E 019°22'0 0.0
2018-Apr-18 17:00N 69°14' E 019°22'0 0.0
2018-Apr-18 16:30N 69°14' E 019°22'0 0.0
2018-Apr-18 16:00N 69°14' E 019°22'0 0.0
2018-Apr-18 15:30N 69°14' E 019°22'0 0.0
2018-Apr-18 14:59N 69°14' E 019°22'0 0.0
2018-Apr-18 14:30N 69°14' E 019°22'0 1.0
2018-Apr-18 14:00N 69°15' E 019°21'0 0.5
2018-Apr-18 13:30N 69°15' E 019°21'0 0.7
2018-Apr-18 13:00N 69°15' E 019°22'1 1.2
2018-Apr-18 12:30N 69°15' E 019°21'0 0.6
2018-Apr-18 12:00N 69°15' E 019°21'0 0.6
2018-Apr-18 11:30N 69°15' E 019°22'0 0.5
2018-Apr-18 11:00N 69°15' E 019°22'0 0.7
2018-Apr-18 10:29N 69°15' E 019°22'3 5.9
2018-Apr-18 10:00N 69°18' E 019°22'4 8.3
2018-Apr-18 09:30N 69°21' E 019°14'4 8.7
2018-Apr-18 09:00N 69°24' E 019°03'5 9.0
2018-Apr-18 08:30N 69°27' E 018°57'5 8.9
2018-Apr-18 08:00N 69°32' E 018°55'4 8.6
2018-Apr-18 07:30N 69°36' E 018°55'3 6.7
2018-Apr-18 07:00N 69°39' E 018°58'0 0.3
2018-Apr-18 06:30N 69°39' E 018°58'0 0.0
2018-Apr-18 06:00N 69°39' E 018°58'0 0.0
2018-Apr-18 05:30N 69°39' E 018°58'0 0.0
2018-Apr-18 05:00N 69°39' E 018°58'0 0.0
2018-Apr-18 04:30N 69°39' E 018°58'0 0.0
2018-Apr-18 04:00N 69°39' E 018°58'0 0.0
2018-Apr-18 03:30N 69°39' E 018°58'0 0.0
2018-Apr-18 03:00N 69°39' E 018°58'0 0.0
2018-Apr-18 02:30N 69°39' E 018°58'0 0.0
2018-Apr-18 02:00N 69°39' E 018°58'0 0.0
2018-Apr-18 01:30N 69°39' E 018°58'0 0.0
2018-Apr-18 01:00N 69°39' E 018°58'0 0.0
2018-Apr-18 00:30N 69°39' E 018°58'0 0.0
2018-Apr-18 00:00N 69°39' E 018°58'0 0.0
2018-Apr-17 23:30N 69°39' E 018°58'0 0.0
2018-Apr-17 23:00N 69°39' E 018°58'0 0.0
2018-Apr-17 22:30N 69°39' E 018°58'0 0.0
2018-Apr-17 22:00N 69°39' E 018°58'0 0.0
2018-Apr-17 21:30N 69°39' E 018°58'0 0.0
2018-Apr-17 21:00N 69°39' E 018°58'0 0.0
2018-Apr-17 20:30N 69°39' E 018°58'1 1.9
2018-Apr-17 20:00N 69°40' E 018°60'5 9.3
2018-Apr-17 19:30N 69°44' E 019°05'5 9.1
2018-Apr-17 19:00N 69°47' E 019°15'4 8.9
2018-Apr-17 18:30N 69°51' E 019°24'4 8.8
2018-Apr-17 18:00N 69°55' E 019°30'5 9.0
2018-Apr-17 17:29N 69°58' E 019°39'4 8.5
2018-Apr-17 17:00N 70°02' E 019°40'5 8.9
2018-Apr-17 16:29N 70°05' E 019°29'3 6.6
2018-Apr-17 16:00N 70°07' E 019°22'0 0.0
2018-Apr-17 15:30N 70°07' E 019°22'0 0.0
2018-Apr-17 15:00N 70°07' E 019°22'0 0.0
2018-Apr-17 14:29N 70°07' E 019°22'0 0.0
2018-Apr-17 13:59N 70°07' E 019°22'0 0.0
2018-Apr-17 13:29N 70°07' E 019°22'0 0.2
2018-Apr-17 12:59N 70°07' E 019°22'0 0.2
2018-Apr-17 12:29N 70°06' E 019°22'0 0.0
2018-Apr-17 11:56N 70°06' E 019°22'0 0.3
2018-Apr-17 11:30N 70°06' E 019°22'4 7.1
2018-Apr-17 11:00N 70°04' E 019°31'4 8.5
2018-Apr-17 10:30N 70°03' E 019°42'2 4.5
2018-Apr-17 09:58N 70°03' E 019°49'0 0.0
2018-Apr-17 09:28N 70°03' E 019°49'0 0.0
2018-Apr-17 08:58N 70°03' E 019°49'0 0.0
2018-Apr-17 08:28N 70°03' E 019°49'0 0.0
2018-Apr-17 07:58N 70°03' E 019°49'0 0.0
2018-Apr-17 07:28N 70°03' E 019°49'0 0.0
2018-Apr-17 06:58N 70°03' E 019°49'0 0.0
2018-Apr-17 06:28N 70°03' E 019°49'0 0.0
2018-Apr-17 06:00N 70°03' E 019°49'0 0.0
2018-Apr-17 05:30N 70°03' E 019°49'  
Track history (hours):
 
Tides and Currents Weather Stations Pressure Air Temp Water Temp Dewpoint Dewpoint Depression Visibility Wind Speed Wind Dir Waves Ship Positions

Trine Charlotte

Last reported at 2018-Apr-27 05:00 UTC. Time now 2018-Apr-27 05:05 UTC.
Position N 69°39' E 018°58'.

Length 66 m; draft 4.6 m.

Type: Cargo ship. MMSI: 257233000.

Date/timePositionNaut miles runAvg speedWind from/ knotsBaromVisibWave heightAir tempDewpointWater temp
2018-Apr-27 05:00N 69°39' E 018°58'0 0.0
2018-Apr-27 04:30N 69°39' E 018°58'0 0.0
2018-Apr-27 04:00N 69°39' E 018°58'0 0.0
2018-Apr-27 03:30N 69°39' E 018°58'0 0.0
2018-Apr-27 03:00N 69°39' E 018°58'0 0.0
2018-Apr-27 02:30N 69°39' E 018°58'0 0.0
2018-Apr-27 02:00N 69°39' E 018°58'0 0.0
2018-Apr-27 01:30N 69°39' E 018°58'0 0.0
2018-Apr-27 01:00N 69°39' E 018°58'0 0.0
2018-Apr-27 00:30N 69°39' E 018°58'0 0.0
2018-Apr-26 23:59N 69°39' E 018°58'0 0.0
2018-Apr-26 23:30N 69°39' E 018°58'0 0.1
2018-Apr-26 23:00N 69°39' E 018°58'0 0.0
2018-Apr-26 22:30N 69°39' E 018°58'0 0.0
2018-Apr-26 22:00N 69°39' E 018°58'0 0.0
2018-Apr-26 21:30N 69°39' E 018°58'0 0.0
2018-Apr-26 21:00N 69°39' E 018°58'0 0.0
2018-Apr-26 20:30N 69°39' E 018°58'0 0.0
2018-Apr-26 20:00N 69°39' E 018°58'0 0.0
2018-Apr-26 19:30N 69°39' E 018°58'0 0.0
2018-Apr-26 19:00N 69°39' E 018°58'0 0.0
2018-Apr-26 18:30N 69°39' E 018°58'1 1.9
2018-Apr-26 17:59N 69°38' E 018°57'4 8.8
2018-Apr-26 17:30N 69°34' E 018°55'4 8.7
2018-Apr-26 17:00N 69°30' E 018°57'4 8.4
2018-Apr-26 16:30N 69°26' E 019°00'4 8.4
2018-Apr-26 16:00N 69°22' E 019°06'4 8.7
2018-Apr-26 15:30N 69°21' E 019°18'4 8.4
2018-Apr-26 14:59N 69°17' E 019°22'3 5.4
2018-Apr-26 14:30N 69°14' E 019°22'0 0.0
2018-Apr-26 14:00N 69°14' E 019°22'0 0.0
2018-Apr-26 13:30N 69°14' E 019°22'0 0.0
2018-Apr-26 13:00N 69°14' E 019°22'0 0.0
2018-Apr-26 12:29N 69°14' E 019°22'0 0.0
2018-Apr-26 12:01N 69°14' E 019°22'1 2.5
2018-Apr-26 11:30N 69°16' E 019°22'5 9.2
2018-Apr-26 11:00N 69°20' E 019°20'5 9.1
2018-Apr-26 10:30N 69°22' E 019°09'4 8.9
2018-Apr-26 10:00N 69°25' E 019°00'4 9.1
2018-Apr-26 09:31N 69°30' E 018°56'5 9.4
2018-Apr-26 08:58N 69°35' E 018°55'4 8.7
2018-Apr-26 08:30N 69°39' E 018°58'1 1.1
2018-Apr-26 08:00N 69°39' E 018°58'0 0.0
2018-Apr-26 07:30N 69°39' E 018°58'0 0.0
2018-Apr-26 06:59N 69°39' E 018°58'0 0.0
2018-Apr-26 06:30N 69°39' E 018°58'0 0.0
2018-Apr-26 06:00N 69°39' E 018°58'0 0.0
2018-Apr-26 05:30N 69°39' E 018°58'0 0.0
2018-Apr-26 05:00N 69°39' E 018°58'0 0.0
2018-Apr-26 04:30N 69°39' E 018°58'0 0.0
2018-Apr-26 04:00N 69°39' E 018°58'0 0.0
2018-Apr-26 03:30N 69°39' E 018°58'0 0.0
2018-Apr-26 02:59N 69°39' E 018°58'0 0.0
2018-Apr-26 02:29N 69°39' E 018°58'0 0.0
2018-Apr-26 02:01N 69°39' E 018°58'0 0.0
2018-Apr-26 01:30N 69°39' E 018°58'0 0.0
2018-Apr-26 01:00N 69°39' E 018°58'0 0.0
2018-Apr-26 00:30N 69°39' E 018°58'0 0.0
2018-Apr-26 00:00N 69°39' E 018°58'0 0.0
2018-Apr-25 23:30N 69°39' E 018°58'0 0.4
2018-Apr-25 23:00N 69°39' E 018°59'4 8.0
2018-Apr-25 22:31N 69°35' E 018°55'5 9.1
2018-Apr-25 22:00N 69°31' E 018°56'5 9.1
2018-Apr-25 21:30N 69°26' E 018°59'5 9.0
2018-Apr-25 21:00N 69°23' E 019°06'5 9.0
2018-Apr-25 20:30N 69°21' E 019°18'4 8.4
2018-Apr-25 20:00N 69°17' E 019°22'3 5.7
2018-Apr-25 19:30N 69°14' E 019°22'0 0.0
2018-Apr-25 19:00N 69°14' E 019°22'0 0.0
2018-Apr-25 18:30N 69°14' E 019°22'0 0.0
2018-Apr-25 18:00N 69°14' E 019°22'0 0.0
2018-Apr-25 17:30N 69°14' E 019°22'0 0.0
2018-Apr-25 17:00N 69°14' E 019°22'0 0.0
2018-Apr-25 16:29N 69°14' E 019°22'0 0.0
2018-Apr-25 16:00N 69°14' E 019°22'0 0.0
2018-Apr-25 15:30N 69°14' E 019°22'0 0.0
2018-Apr-25 15:01N 69°14' E 019°22'0 0.0
2018-Apr-25 14:30N 69°14' E 019°22'3 6.5
2018-Apr-25 14:00N 69°18' E 019°22'4 8.3
2018-Apr-25 13:30N 69°21' E 019°16'4 8.8
2018-Apr-25 13:00N 69°23' E 019°05'4 8.9
2018-Apr-25 12:30N 69°27' E 018°59'4 8.7
2018-Apr-25 12:00N 69°31' E 018°56'4 9.0
2018-Apr-25 11:30N 69°35' E 018°55'4 7.9
2018-Apr-25 11:00N 69°39' E 018°59'0 0.3
2018-Apr-25 10:30N 69°39' E 018°58'0 0.0
2018-Apr-25 10:00N 69°39' E 018°58'0 0.0
2018-Apr-25 09:30N 69°39' E 018°58'0 0.0
2018-Apr-25 09:00N 69°39' E 018°58'0 0.0
2018-Apr-25 08:30N 69°39' E 018°58'0 0.0
2018-Apr-25 08:00N 69°39' E 018°58'0 0.0
2018-Apr-25 07:30N 69°39' E 018°58'0 0.0
2018-Apr-25 07:00N 69°39' E 018°58'0 0.0
2018-Apr-25 06:30N 69°39' E 018°58'0 0.0
2018-Apr-25 06:00N 69°39' E 018°58'0 0.0
2018-Apr-25 05:30N 69°39' E 018°58'0 0.0
2018-Apr-25 05:00N 69°39' E 018°58'0 0.0
2018-Apr-25 04:30N 69°39' E 018°58'0 0.0
2018-Apr-25 04:00N 69°39' E 018°58'0 0.0
2018-Apr-25 03:30N 69°39' E 018°58'0 0.0
2018-Apr-25 03:00N 69°39' E 018°58'0 0.0
2018-Apr-25 02:30N 69°39' E 018°58'0 0.0
2018-Apr-25 02:00N 69°39' E 018°58'0 0.0
2018-Apr-25 01:30N 69°39' E 018°58'0 0.0
2018-Apr-25 01:00N 69°39' E 018°58'0 0.0
2018-Apr-25 00:30N 69°39' E 018°58'0 0.0
2018-Apr-25 00:00N 69°39' E 018°58'0 0.0
2018-Apr-24 23:30N 69°39' E 018°58'0 0.0
2018-Apr-24 23:00N 69°39' E 018°58'0 0.0
2018-Apr-24 22:30N 69°39' E 018°58'0 0.0
2018-Apr-24 22:00N 69°39' E 018°58'0 0.0
2018-Apr-24 21:30N 69°39' E 018°58'0 0.0
2018-Apr-24 21:00N 69°39' E 018°58'0 0.0
2018-Apr-24 20:30N 69°39' E 018°58'0 0.2
2018-Apr-24 20:00N 69°39' E 018°58'4 7.1
2018-Apr-24 19:30N 69°36' E 018°55'4 8.6
2018-Apr-24 19:00N 69°32' E 018°56'4 8.8
2018-Apr-24 18:30N 69°27' E 018°58'4 9.0
2018-Apr-24 18:00N 69°23' E 019°04'4 8.7
2018-Apr-24 17:30N 69°21' E 019°15'4 8.0
2018-Apr-24 17:00N 69°18' E 019°22'4 7.6
2018-Apr-24 16:30N 69°14' E 019°22'0 0.2
2018-Apr-24 16:00N 69°14' E 019°22'0 0.0
2018-Apr-24 15:28N 69°14' E 019°22'0 0.0
2018-Apr-24 15:00N 69°14' E 019°22'0 0.0
2018-Apr-24 14:29N 69°14' E 019°22'0 0.0
2018-Apr-24 14:00N 69°14' E 019°22'0 0.2
2018-Apr-24 13:30N 69°14' E 019°22'4 8.1
2018-Apr-24 13:00N 69°18' E 019°22'4 7.9
2018-Apr-24 12:30N 69°21' E 019°15'4 8.3
2018-Apr-24 12:00N 69°23' E 019°04'4 8.6
2018-Apr-24 11:29N 69°27' E 018°58'4 8.5
2018-Apr-24 11:00N 69°31' E 018°56'5 9.0
2018-Apr-24 10:30N 69°35' E 018°55'4 8.6
2018-Apr-24 10:00N 69°40' E 018°59'0 0.2
2018-Apr-24 09:30N 69°40' E 018°58'0 0.0
2018-Apr-24 09:00N 69°40' E 018°58'0 0.0
2018-Apr-24 08:30N 69°40' E 018°58'0 0.0
2018-Apr-24 08:00N 69°40' E 018°58'0 0.0
2018-Apr-24 07:30N 69°40' E 018°58'0 0.0
2018-Apr-24 07:00N 69°40' E 018°58'0 0.0
2018-Apr-24 06:30N 69°40' E 018°58'0 0.0
2018-Apr-24 06:00N 69°40' E 018°58'0 0.0
2018-Apr-24 05:30N 69°40' E 018°58'0 0.0
2018-Apr-24 05:00N 69°40' E 018°58'0 0.0
2018-Apr-24 04:30N 69°40' E 018°58'0 0.0
2018-Apr-24 04:00N 69°40' E 018°58'0 0.1
2018-Apr-24 03:30N 69°40' E 018°58'0 0.0
2018-Apr-24 03:00N 69°40' E 018°58'0 0.0
2018-Apr-24 02:30N 69°40' E 018°58'0 0.0
2018-Apr-24 02:00N 69°40' E 018°58'0 0.0
2018-Apr-24 01:30N 69°40' E 018°58'0 0.0
2018-Apr-24 01:00N 69°40' E 018°58'0 0.0
2018-Apr-24 00:30N 69°40' E 018°58'0 0.0
2018-Apr-24 00:00N 69°40' E 018°58'0 0.0
2018-Apr-23 23:30N 69°40' E 018°58'0 0.0
2018-Apr-23 23:00N 69°40' E 018°58'0 0.0
2018-Apr-23 22:30N 69°40' E 018°58'0 0.0
2018-Apr-23 22:00N 69°40' E 018°58'0 0.1
2018-Apr-23 21:30N 69°40' E 018°58'3 6.0
2018-Apr-23 20:59N 69°42' E 019°03'4 8.5
2018-Apr-23 20:30N 69°46' E 019°10'4 8.9
2018-Apr-23 20:00N 69°47' E 019°21'4 8.8
2018-Apr-23 19:30N 69°49' E 019°34'4 7.7
2018-Apr-23 19:00N 69°48' E 019°45'5 9.1
2018-Apr-23 18:30N 69°44' E 019°45'4 9.1
2018-Apr-23 18:00N 69°39' E 019°45'3 5.6
2018-Apr-23 17:30N 69°37' E 019°44'0 0.0
2018-Apr-23 17:00N 69°37' E 019°44'0 0.0
2018-Apr-23 16:30N 69°37' E 019°44'0 0.0
2018-Apr-23 16:00N 69°37' E 019°44'0 0.0
2018-Apr-23 15:30N 69°37' E 019°44'0 0.0
2018-Apr-23 15:00N 69°37' E 019°44'1 2.2
2018-Apr-23 14:30N 69°38' E 019°45'2 3.8
2018-Apr-23 13:59N 69°40' E 019°45'3 6.9
2018-Apr-23 13:29N 69°43' E 019°45'3 6.6
2018-Apr-23 13:00N 69°46' E 019°45'3 6.1
2018-Apr-23 12:30N 69°49' E 019°43'3 6.0
2018-Apr-23 12:00N 69°49' E 019°34'4 8.2
2018-Apr-23 11:30N 69°48' E 019°23'4 8.5
2018-Apr-23 10:59N 69°46' E 019°12'4 8.6
2018-Apr-23 10:30N 69°43' E 019°04'4 7.9
2018-Apr-23 09:59N 69°39' E 018°58'0 0.2
2018-Apr-23 09:30N 69°39' E 018°58'0 0.0
2018-Apr-23 09:00N 69°39' E 018°58'0 0.0
2018-Apr-23 08:30N 69°39' E 018°58'0 0.0
2018-Apr-23 08:00N 69°39' E 018°58'0 0.0
2018-Apr-23 07:30N 69°39' E 018°58'0 0.0
2018-Apr-23 07:00N 69°39' E 018°58'0 0.0
2018-Apr-23 06:30N 69°39' E 018°58'0 0.0
2018-Apr-23 06:00N 69°39' E 018°58'0 0.0
2018-Apr-23 05:30N 69°39' E 018°58'0 0.0
2018-Apr-23 05:00N 69°39' E 018°58'0 0.0
2018-Apr-23 04:30N 69°39' E 018°58'0 0.0
2018-Apr-23 04:00N 69°39' E 018°58'0 0.0
2018-Apr-23 03:30N 69°39' E 018°58'0 0.0
2018-Apr-23 03:00N 69°39' E 018°58'0 0.0
2018-Apr-23 02:30N 69°39' E 018°58'0 0.0
2018-Apr-23 02:00N 69°39' E 018°58'0 0.0
2018-Apr-23 01:30N 69°39' E 018°58'0 0.0
2018-Apr-23 01:00N 69°39' E 018°58'0 0.0
2018-Apr-23 00:30N 69°39' E 018°58'0 0.0
2018-Apr-23 00:00N 69°39' E 018°58'0 0.0
2018-Apr-22 23:30N 69°39' E 018°58'0 0.0
2018-Apr-22 23:00N 69°39' E 018°58'0 0.0
2018-Apr-22 22:30N 69°39' E 018°58'0 0.0
2018-Apr-22 22:00N 69°39' E 018°58'0 0.0
2018-Apr-22 21:30N 69°39' E 018°58'0 0.0
2018-Apr-22 21:00N 69°39' E 018°58'0 0.0
2018-Apr-22 20:30N 69°39' E 018°58'0 0.0
2018-Apr-22 20:00N 69°39' E 018°58'3 5.9
2018-Apr-22 19:30N 69°36' E 018°55'4 8.9
2018-Apr-22 19:00N 69°32' E 018°56'4 8.7
2018-Apr-22 18:30N 69°28' E 018°57'4 8.7
2018-Apr-22 18:00N 69°24' E 019°03'4 8.3
2018-Apr-22 17:29N 69°21' E 019°13'4 8.0
2018-Apr-22 17:00N 69°19' E 019°22'4 8.6
2018-Apr-22 16:30N 69°15' E 019°22'0 0.9
2018-Apr-22 16:00N 69°14' E 019°22'0 0.0
2018-Apr-22 15:29N 69°14' E 019°22'0 0.0
2018-Apr-22 14:59N 69°14' E 019°22'0 0.0
2018-Apr-22 14:30N 69°14' E 019°22'0 0.0
2018-Apr-22 14:00N 69°14' E 019°22'0 0.0
2018-Apr-22 13:30N 69°14' E 019°22'0 0.0
2018-Apr-22 12:58N 69°14' E 019°22'3 5.6
2018-Apr-22 12:30N 69°17' E 019°22'4 7.5
2018-Apr-22 12:00N 69°21' E 019°19'4 7.9
2018-Apr-22 11:30N 69°22' E 019°09'4 8.0
2018-Apr-22 11:00N 69°25' E 019°01'4 8.2
2018-Apr-22 10:30N 69°29' E 018°57'4 8.4
2018-Apr-22 09:59N 69°33' E 018°55'4 8.9
2018-Apr-22 09:30N 69°37' E 018°56'2 3.8
2018-Apr-22 08:59N 69°39' E 018°58'0 0.0
2018-Apr-22 08:29N 69°39' E 018°58'0 0.0
2018-Apr-22 07:59N 69°39' E 018°58'0 0.0
2018-Apr-22 07:29N 69°39' E 018°58'0 0.0
2018-Apr-22 06:59N 69°39' E 018°58'0 0.0
2018-Apr-22 06:29N 69°39' E 018°58'0 0.0
2018-Apr-22 05:59N 69°39' E 018°58'0 0.0
2018-Apr-22 05:29N 69°39' E 018°58'0 0.0
2018-Apr-22 04:59N 69°39' E 018°58'0 0.0
2018-Apr-22 04:29N 69°39' E 018°58'0 0.0
2018-Apr-22 03:59N 69°39' E 018°58'0 0.0
2018-Apr-22 03:29N 69°39' E 018°58'0 0.0
2018-Apr-22 02:59N 69°39' E 018°58'0 0.0
2018-Apr-22 02:29N 69°39' E 018°58'0 0.0
2018-Apr-22 01:59N 69°39' E 018°58'0 0.0
2018-Apr-22 01:29N 69°39' E 018°58'0 0.0
2018-Apr-22 00:59N 69°39' E 018°58'0 0.0
2018-Apr-22 00:29N 69°39' E 018°58'0 0.0
2018-Apr-21 23:59N 69°39' E 018°58'0 0.0
2018-Apr-21 23:29N 69°39' E 018°58'0 0.0
2018-Apr-21 22:59N 69°39' E 018°58'0 0.0
2018-Apr-21 22:29N 69°39' E 018°58'0 0.0
2018-Apr-21 21:59N 69°39' E 018°58'0 0.0
2018-Apr-21 21:29N 69°39' E 018°58'0 0.0
2018-Apr-21 20:59N 69°39' E 018°58'0 0.0
2018-Apr-21 20:29N 69°39' E 018°58'0 0.0
2018-Apr-21 19:59N 69°39' E 018°58'0 0.0
2018-Apr-21 19:29N 69°39' E 018°58'0 0.0
2018-Apr-21 18:59N 69°39' E 018°58'0 0.0
2018-Apr-21 18:29N 69°39' E 018°58'0 0.0
2018-Apr-21 17:59N 69°39' E 018°58'0 0.0
2018-Apr-21 17:29N 69°39' E 018°58'0 0.0
2018-Apr-21 16:59N 69°39' E 018°58'0 0.0
2018-Apr-21 16:29N 69°39' E 018°58'0 0.0
2018-Apr-21 15:59N 69°39' E 018°58'0 0.0
2018-Apr-21 15:29N 69°39' E 018°58'0 0.0
2018-Apr-21 14:59N 69°39' E 018°58'0 0.0
2018-Apr-21 14:29N 69°39' E 018°58'0 0.0
2018-Apr-21 13:59N 69°39' E 018°58'0 0.0
2018-Apr-21 13:29N 69°39' E 018°58'0 0.0
2018-Apr-21 12:59N 69°39' E 018°58'0 0.0
2018-Apr-21 12:29N 69°39' E 018°58'0 0.0
2018-Apr-21 11:59N 69°39' E 018°58'0 0.0
2018-Apr-21 11:29N 69°39' E 018°58'0 0.0
2018-Apr-21 11:00N 69°39' E 018°58'3 5.4
2018-Apr-21 10:30N 69°37' E 018°55'5 9.1
2018-Apr-21 10:00N 69°32' E 018°56'4 9.1
2018-Apr-21 09:30N 69°28' E 018°57'5 9.2
2018-Apr-21 09:00N 69°24' E 019°03'4 8.7
2018-Apr-21 08:30N 69°21' E 019°14'4 8.2
2018-Apr-21 08:00N 69°18' E 019°22'4 7.6
2018-Apr-21 07:28N 69°14' E 019°22'0 0.0
2018-Apr-21 06:49N 69°14' E 019°22'0 0.0
2018-Apr-21 06:22N 69°14' E 019°22'0 0.0
2018-Apr-21 05:55N 69°14' E 019°22'0 0.0
2018-Apr-21 05:28N 69°14' E 019°22'0 0.0
2018-Apr-21 04:58N 69°14' E 019°22'0 0.0
2018-Apr-21 04:28N 69°14' E 019°22'0 0.0
2018-Apr-21 03:58N 69°14' E 019°22'0 0.0
2018-Apr-21 03:28N 69°14' E 019°22'0 0.0
2018-Apr-21 02:58N 69°14' E 019°22'0 0.0
2018-Apr-21 02:28N 69°14' E 019°22'0 0.0
2018-Apr-21 01:55N 69°14' E 019°22'0 0.0
2018-Apr-21 01:25N 69°14' E 019°22'0 0.0
2018-Apr-21 00:58N 69°14' E 019°22'0 0.0
2018-Apr-21 00:25N 69°14' E 019°22'0 0.0
2018-Apr-20 23:43N 69°14' E 019°22'0 0.0
2018-Apr-20 23:25N 69°14' E 019°22'0 0.0
2018-Apr-20 21:31N 69°14' E 019°22'0 0.0
2018-Apr-20 20:25N 69°14' E 019°22'0 0.0
2018-Apr-20 20:00N 69°14' E 019°22'0 0.0
2018-Apr-20 19:30N 69°14' E 019°22'0 0.0
2018-Apr-20 18:59N 69°14' E 019°22'0 0.0
2018-Apr-20 18:30N 69°14' E 019°22'3 5.9
2018-Apr-20 18:00N 69°17' E 019°22'4 8.1
2018-Apr-20 17:30N 69°21' E 019°17'4 9.0
2018-Apr-20 17:00N 69°23' E 019°05'5 8.7
2018-Apr-20 16:29N 69°26' E 018°59'4 8.5
2018-Apr-20 16:00N 69°30' E 018°56'4 9.0
2018-Apr-20 15:30N 69°35' E 018°55'4 9.0
2018-Apr-20 15:00N 69°39' E 018°59'0 0.6
2018-Apr-20 14:30N 69°39' E 018°58'0 0.0
2018-Apr-20 14:01N 69°39' E 018°58'0 0.0
2018-Apr-20 13:30N 69°39' E 018°58'0 0.0
2018-Apr-20 13:00N 69°39' E 018°58'0 0.0
2018-Apr-20 12:30N 69°39' E 018°58'0 0.0
2018-Apr-20 12:00N 69°39' E 018°58'0 0.0
2018-Apr-20 11:30N 69°39' E 018°58'0 0.0
2018-Apr-20 10:59N 69°39' E 018°58'3 6.1
2018-Apr-20 10:30N 69°37' E 018°55'5 9.0
2018-Apr-20 09:59N 69°32' E 018°55'4 8.9
2018-Apr-20 09:30N 69°28' E 018°57'4 9.0
2018-Apr-20 09:00N 69°24' E 019°03'4 8.5
2018-Apr-20 08:30N 69°21' E 019°13'4 8.1
2018-Apr-20 08:00N 69°19' E 019°22'4 8.5
2018-Apr-20 07:30N 69°14' E 019°22'0 0.3
2018-Apr-20 06:59N 69°14' E 019°22'0 0.0
2018-Apr-20 06:30N 69°14' E 019°22'0 0.0
2018-Apr-20 06:00N 69°14' E 019°22'0 0.0
2018-Apr-20 05:30N 69°14' E 019°22'0 0.0
2018-Apr-20 04:59N 69°14' E 019°22'0 0.0
2018-Apr-20 04:30N 69°14' E 019°22'0 0.0
2018-Apr-20 04:00N 69°14' E 019°22'3 6.4
2018-Apr-20 03:30N 69°17' E 019°22'4 8.4
2018-Apr-20 03:00N 69°21' E 019°16'4 8.9
2018-Apr-20 02:30N 69°23' E 019°05'5 9.2
2018-Apr-20 02:00N 69°27' E 018°58'5 9.4
2018-Apr-20 01:30N 69°31' E 018°56'5 9.6
2018-Apr-20 00:59N 69°36' E 018°55'3 6.6
2018-Apr-20 00:29N 69°40' E 018°58'0 0.0
2018-Apr-20 00:00N 69°40' E 018°58'0 0.0
2018-Apr-19 23:30N 69°40' E 018°58'0 0.0
2018-Apr-19 23:00N 69°40' E 018°58'0 0.0
2018-Apr-19 22:30N 69°40' E 018°58'0 0.0
2018-Apr-19 22:00N 69°40' E 018°58'0 0.0
2018-Apr-19 21:29N 69°40' E 018°58'0 0.0
2018-Apr-19 21:00N 69°40' E 018°58'0 0.0
2018-Apr-19 20:30N 69°40' E 018°58'0 0.0
2018-Apr-19 20:00N 69°40' E 018°58'0 0.0
2018-Apr-19 19:29N 69°40' E 018°58'0 0.0
2018-Apr-19 19:00N 69°40' E 018°58'3 5.3
2018-Apr-19 18:28N 69°42' E 019°03'4 8.4
2018-Apr-19 18:00N 69°45' E 019°08'5 8.8
2018-Apr-19 17:29N 69°47' E 019°20'4 9.1
2018-Apr-19 17:00N 69°49' E 019°32'4 8.4
2018-Apr-19 16:30N 69°49' E 019°45'4 8.8
2018-Apr-19 16:00N 69°44' E 019°45'4 8.9
2018-Apr-19 15:30N 69°40' E 019°45'3 6.5
2018-Apr-19 15:00N 69°37' E 019°44'0 0.0
2018-Apr-19 14:30N 69°37' E 019°44'0 0.0
2018-Apr-19 14:00N 69°37' E 019°44'0 0.0
2018-Apr-19 13:30N 69°37' E 019°44'0 0.0
2018-Apr-19 13:00N 69°37' E 019°44'0 0.0
2018-Apr-19 12:30N 69°37' E 019°44'2 4.5
2018-Apr-19 12:00N 69°39' E 019°45'5 9.6
2018-Apr-19 11:30N 69°44' E 019°45'5 9.5
2018-Apr-19 10:59N 69°48' E 019°44'4 7.8
2018-Apr-19 10:30N 69°49' E 019°34'4 8.5
2018-Apr-19 10:00N 69°48' E 019°22'4 8.6
2018-Apr-19 09:31N 69°46' E 019°11'5 8.7
2018-Apr-19 09:00N 69°42' E 019°03'3 6.9
2018-Apr-19 08:30N 69°39' E 018°58'0 0.0
2018-Apr-19 08:00N 69°39' E 018°58'0 0.0
2018-Apr-19 07:30N 69°39' E 018°58'0 0.0
2018-Apr-19 07:00N 69°39' E 018°58'0 0.0
2018-Apr-19 06:30N 69°39' E 018°58'0 0.0
2018-Apr-19 06:00N 69°39' E 018°58'0 0.0
2018-Apr-19 05:30N 69°39' E 018°58'0 0.0
2018-Apr-19 05:00N 69°39' E 018°58'0 0.0
2018-Apr-19 04:30N 69°39' E 018°58'0 0.0
2018-Apr-19 03:59N 69°39' E 018°58'0 0.0
2018-Apr-19 03:30N 69°39' E 018°58'0 0.0
2018-Apr-19 03:00N 69°39' E 018°58'0 0.0
2018-Apr-19 02:29N 69°39' E 018°58'0 0.0
2018-Apr-19 02:00N 69°39' E 018°58'0 0.0
2018-Apr-19 01:30N 69°39' E 018°58'0 0.0
2018-Apr-19 01:00N 69°39' E 018°58'0 0.0
2018-Apr-19 00:30N 69°39' E 018°58'1 2.0
2018-Apr-18 23:59N 69°38' E 018°57'4 8.4
2018-Apr-18 23:30N 69°34' E 018°55'4 8.5
2018-Apr-18 23:00N 69°30' E 018°56'4 8.1
2018-Apr-18 22:30N 69°26' E 018°59'4 8.3
2018-Apr-18 22:00N 69°23' E 019°06'4 8.4
2018-Apr-18 21:29N 69°21' E 019°17'4 7.4
2018-Apr-18 21:00N 69°18' E 019°22'4 6.3
2018-Apr-18 20:26N 69°14' E 019°22'0 0.0
2018-Apr-18 19:47N 69°14' E 019°22'0 0.0
2018-Apr-18 19:26N 69°14' E 019°22'0 0.0
2018-Apr-18 18:56N 69°14' E 019°22'0 0.0
2018-Apr-18 18:26N 69°14' E 019°22'0 0.0
2018-Apr-18 17:28N 69°14' E 019°22'0 0.0
2018-Apr-18 17:00N 69°14' E 019°22'0 0.0
2018-Apr-18 16:30N 69°14' E 019°22'0 0.0
2018-Apr-18 16:00N 69°14' E 019°22'0 0.0
2018-Apr-18 15:30N 69°14' E 019°22'0 0.0
2018-Apr-18 14:59N 69°14' E 019°22'0 0.0
2018-Apr-18 14:30N 69°14' E 019°22'0 1.0
2018-Apr-18 14:00N 69°15' E 019°21'0 0.5
2018-Apr-18 13:30N 69°15' E 019°21'0 0.7
2018-Apr-18 13:00N 69°15' E 019°22'1 1.2
2018-Apr-18 12:30N 69°15' E 019°21'0 0.6
2018-Apr-18 12:00N 69°15' E 019°21'0 0.6
2018-Apr-18 11:30N 69°15' E 019°22'0 0.5
2018-Apr-18 11:00N 69°15' E 019°22'0 0.7
2018-Apr-18 10:29N 69°15' E 019°22'3 5.9
2018-Apr-18 10:00N 69°18' E 019°22'4 8.3
2018-Apr-18 09:30N 69°21' E 019°14'4 8.7
2018-Apr-18 09:00N 69°24' E 019°03'5 9.0
2018-Apr-18 08:30N 69°27' E 018°57'5 8.9
2018-Apr-18 08:00N 69°32' E 018°55'4 8.6
2018-Apr-18 07:30N 69°36' E 018°55'3 6.7
2018-Apr-18 07:00N 69°39' E 018°58'0 0.3
2018-Apr-18 06:30N 69°39' E 018°58'0 0.0
2018-Apr-18 06:00N 69°39' E 018°58'0 0.0
2018-Apr-18 05:30N 69°39' E 018°58'0 0.0
2018-Apr-18 05:00N 69°39' E 018°58'0 0.0
2018-Apr-18 04:30N 69°39' E 018°58'0 0.0
2018-Apr-18 04:00N 69°39' E 018°58'0 0.0
2018-Apr-18 03:30N 69°39' E 018°58'0 0.0
2018-Apr-18 03:00N 69°39' E 018°58'0 0.0
2018-Apr-18 02:30N 69°39' E 018°58'0 0.0
2018-Apr-18 02:00N 69°39' E 018°58'0 0.0
2018-Apr-18 01:30N 69°39' E 018°58'0 0.0
2018-Apr-18 01:00N 69°39' E 018°58'0 0.0
2018-Apr-18 00:30N 69°39' E 018°58'0 0.0
2018-Apr-18 00:00N 69°39' E 018°58'0 0.0
2018-Apr-17 23:30N 69°39' E 018°58'0 0.0
2018-Apr-17 23:00N 69°39' E 018°58'0 0.0
2018-Apr-17 22:30N 69°39' E 018°58'0 0.0
2018-Apr-17 22:00N 69°39' E 018°58'0 0.0
2018-Apr-17 21:30N 69°39' E 018°58'0 0.0
2018-Apr-17 21:00N 69°39' E 018°58'0 0.0
2018-Apr-17 20:30N 69°39' E 018°58'1 1.9
2018-Apr-17 20:00N 69°40' E 018°60'5 9.3
2018-Apr-17 19:30N 69°44' E 019°05'5 9.1
2018-Apr-17 19:00N 69°47' E 019°15'4 8.9
2018-Apr-17 18:30N 69°51' E 019°24'4 8.8
2018-Apr-17 18:00N 69°55' E 019°30'5 9.0
2018-Apr-17 17:29N 69°58' E 019°39'4 8.5
2018-Apr-17 17:00N 70°02' E 019°40'5 8.9
2018-Apr-17 16:29N 70°05' E 019°29'3 6.6
2018-Apr-17 16:00N 70°07' E 019°22'0 0.0
2018-Apr-17 15:30N 70°07' E 019°22'0 0.0
2018-Apr-17 15:00N 70°07' E 019°22'0 0.0
2018-Apr-17 14:29N 70°07' E 019°22'0 0.0
2018-Apr-17 13:59N 70°07' E 019°22'0 0.0
2018-Apr-17 13:29N 70°07' E 019°22'0 0.2
2018-Apr-17 12:59N 70°07' E 019°22'0 0.2
2018-Apr-17 12:29N 70°06' E 019°22'0 0.0
2018-Apr-17 11:56N 70°06' E 019°22'0 0.3
2018-Apr-17 11:30N 70°06' E 019°22'4 7.1
2018-Apr-17 11:00N 70°04' E 019°31'4 8.5
2018-Apr-17 10:30N 70°03' E 019°42'2 4.5
2018-Apr-17 09:58N 70°03' E 019°49'0 0.0
2018-Apr-17 09:28N 70°03' E 019°49'0 0.0
2018-Apr-17 08:58N 70°03' E 019°49'0 0.0
2018-Apr-17 08:28N 70°03' E 019°49'0 0.0
2018-Apr-17 07:58N 70°03' E 019°49'0 0.0
2018-Apr-17 07:28N 70°03' E 019°49'0 0.0
2018-Apr-17 06:58N 70°03' E 019°49'0 0.0
2018-Apr-17 06:28N 70°03' E 019°49'0 0.0
2018-Apr-17 06:00N 70°03' E 019°49'0 0.0
2018-Apr-17 05:30N 70°03' E 019°49'  

Dump ship's entire track history